createdAt,value
2022-08-14T00:02:01.570Z,22.78
2022-08-14T00:05:10.891Z,22.78
2022-08-14T00:08:14.511Z,22.80
2022-08-14T00:11:17.219Z,22.78
2022-08-14T00:14:19.969Z,22.78
2022-08-14T00:17:22.544Z,22.71
2022-08-14T00:20:30.938Z,22.75
2022-08-14T00:23:40.134Z,22.68
2022-08-14T00:26:42.795Z,22.71
2022-08-14T00:29:46.079Z,22.60
2022-08-14T00:32:56.656Z,22.60
2022-08-14T00:36:39.280Z,22.64
2022-08-14T00:39:29.000Z,22.62
2022-08-14T00:42:55.463Z,22.67
2022-08-14T00:45:55.483Z,22.54
2022-08-14T00:48:58.723Z,22.40
2022-08-14T00:52:02.926Z,22.53
2022-08-14T00:55:07.616Z,22.37
2022-08-14T00:58:32.948Z,22.39
2022-08-14T01:01:36.990Z,22.62
2022-08-14T01:04:53.569Z,22.54
2022-08-14T01:07:59.377Z,22.43
2022-08-14T01:11:02.008Z,22.46
2022-08-14T01:14:25.950Z,22.59
2022-08-14T01:17:51.902Z,22.64
2022-08-14T01:21:04.277Z,22.58
2022-08-14T01:24:11.005Z,22.58
2022-08-14T01:27:17.468Z,22.39
2022-08-14T01:30:26.364Z,22.60
2022-08-14T01:33:30.450Z,22.57
2022-08-14T01:36:42.259Z,22.54
2022-08-14T01:39:47.008Z,22.64
2022-08-14T01:42:50.729Z,22.55
2022-08-14T01:46:06.514Z,22.46
2022-08-14T01:49:11.617Z,22.54
2022-08-14T01:52:33.999Z,22.58
2022-08-14T01:55:40.723Z,22.62
2022-08-14T01:58:57.402Z,22.44
2022-08-14T02:02:03.989Z,22.32
2022-08-14T02:05:08.295Z,22.57
2022-08-14T02:08:11.078Z,22.46
2022-08-14T02:11:18.834Z,22.45
2022-08-14T02:14:31.403Z,22.15
2022-08-14T02:17:35.814Z,22.24
2022-08-14T02:20:38.589Z,22.38
2022-08-14T02:23:42.939Z,22.31
2022-08-14T02:28:20.207Z,22.35
2022-08-14T02:30:11.519Z,22.36
2022-08-14T02:33:16.459Z,22.14
2022-08-14T02:37:04.886Z,22.05
2022-08-14T02:39:45.730Z,22.05
2022-08-14T02:42:54.950Z,21.96
2022-08-14T02:46:00.343Z,22.13
2022-08-14T02:49:06.634Z,22.14
2022-08-14T02:52:27.000Z,22.10
2022-08-14T02:55:33.230Z,21.96
2022-08-14T02:58:41.781Z,21.94
2022-08-14T03:01:51.061Z,21.84
2022-08-14T03:04:57.526Z,21.91
2022-08-14T03:08:09.668Z,21.88
2022-08-14T03:11:14.916Z,21.93
2022-08-14T03:14:21.454Z,21.97
2022-08-14T03:17:24.082Z,22.03
2022-08-14T03:20:28.991Z,21.91
2022-08-14T03:23:37.905Z,21.92
2022-08-14T03:26:44.005Z,21.82
2022-08-14T03:29:48.578Z,21.91
2022-08-14T03:32:51.398Z,21.93
2022-08-14T03:36:00.028Z,21.94
2022-08-14T03:39:15.590Z,21.92
2022-08-14T03:42:25.220Z,21.68
2022-08-14T03:45:48.541Z,21.82
2022-08-14T03:48:54.218Z,21.74
2022-08-14T03:51:57.459Z,21.55
2022-08-14T03:55:00.845Z,21.53
2022-08-14T03:58:03.490Z,21.42
2022-08-14T04:01:09.164Z,21.39
2022-08-14T04:04:13.338Z,21.21
2022-08-14T04:07:17.234Z,21.29
2022-08-14T04:10:31.584Z,21.49
2022-08-14T04:13:37.740Z,21.41
2022-08-14T04:16:48.064Z,21.29
2022-08-14T04:19:51.018Z,21.38
2022-08-14T04:22:55.673Z,21.16
2022-08-14T04:25:58.833Z,21.26
2022-08-14T04:29:14.853Z,21.17
2022-08-14T04:32:58.294Z,21.20
2022-08-14T04:35:42.730Z,21.11
2022-08-14T04:39:16.518Z,21.16
2022-08-14T04:42:36.747Z,21.19
2022-08-14T04:45:41.540Z,21.34
2022-08-14T04:48:51.385Z,21.21
2022-08-14T04:52:04.081Z,21.25
2022-08-14T04:55:18.400Z,21.23
2022-08-14T04:58:32.929Z,21.33
2022-08-14T05:01:39.862Z,21.30
2022-08-14T05:04:45.533Z,21.29
2022-08-14T05:08:09.695Z,21.32
2022-08-14T05:11:13.424Z,21.32
2022-08-14T05:14:46.641Z,21.30
2022-08-14T05:17:43.985Z,21.36
2022-08-14T05:21:55.615Z,21.42
2022-08-14T05:24:17.790Z,21.50
2022-08-14T05:27:23.519Z,21.52
2022-08-14T05:30:26.759Z,21.52
2022-08-14T05:33:33.040Z,21.61
2022-08-14T05:36:37.052Z,21.74
2022-08-14T05:39:42.230Z,21.76
2022-08-14T05:42:46.438Z,21.88
2022-08-14T05:45:49.860Z,21.63
2022-08-14T05:48:54.847Z,21.87
2022-08-14T05:52:01.958Z,21.92
2022-08-14T05:55:06.022Z,21.97
2022-08-14T05:58:10.033Z,22.22
2022-08-14T06:01:12.712Z,22.25
2022-08-14T06:04:17.468Z,22.37
2022-08-14T06:07:21.391Z,22.42
2022-08-14T06:10:24.091Z,22.46
2022-08-14T06:13:31.560Z,22.69
2022-08-14T06:16:45.174Z,22.77
2022-08-14T06:19:47.902Z,22.94
2022-08-14T06:22:53.190Z,23.01
2022-08-14T06:25:55.852Z,23.13
2022-08-14T06:29:00.489Z,23.27
2022-08-14T06:32:38.087Z,23.29
2022-08-14T06:35:27.830Z,23.45
2022-08-14T06:38:32.777Z,23.54
2022-08-14T06:41:58.771Z,23.66
2022-08-14T06:44:58.430Z,23.81
2022-08-14T06:48:01.594Z,23.73
2022-08-14T06:51:04.268Z,23.87
2022-08-14T06:54:09.479Z,24.10
2022-08-14T06:57:12.652Z,24.23
2022-08-14T07:00:22.554Z,24.37
2022-08-14T07:03:47.310Z,24.38
2022-08-14T07:06:51.028Z,24.43
2022-08-14T07:09:55.409Z,24.42
2022-08-14T07:13:03.660Z,24.65
2022-08-14T07:16:07.621Z,24.80
2022-08-14T07:19:10.433Z,25.00
2022-08-14T07:22:17.578Z,25.23
2022-08-14T07:25:32.514Z,25.44
2022-08-14T07:28:43.217Z,25.58
2022-08-14T07:31:46.470Z,25.70
2022-08-14T07:34:49.823Z,25.78
2022-08-14T07:37:52.705Z,25.78
2022-08-14T07:40:57.680Z,25.96
2022-08-14T07:44:22.454Z,26.19
2022-08-14T07:47:23.244Z,26.55
2022-08-14T07:50:26.158Z,26.52
2022-08-14T07:53:39.364Z,26.57
2022-08-14T07:56:47.968Z,26.94
2022-08-14T07:59:53.381Z,27.04
2022-08-14T08:02:57.070Z,27.12
2022-08-14T08:06:03.647Z,27.33
2022-08-14T08:09:13.507Z,27.40
2022-08-14T08:12:26.204Z,27.43
2022-08-14T08:15:36.261Z,27.53
2022-08-14T08:18:39.250Z,27.66
2022-08-14T08:21:43.724Z,27.59
2022-08-14T08:24:46.548Z,27.36
2022-08-14T08:27:59.504Z,27.13
2022-08-14T08:31:06.714Z,27.58
2022-08-14T08:34:14.135Z,28.05
2022-08-14T08:37:21.755Z,28.63
2022-08-14T08:40:31.262Z,28.52
2022-08-14T08:43:36.932Z,28.53
2022-08-14T08:46:42.695Z,28.49
2022-08-14T08:49:53.055Z,28.86
2022-08-14T08:53:04.748Z,29.25
2022-08-14T08:56:08.101Z,29.20
2022-08-14T08:59:27.138Z,29.58
2022-08-14T09:02:33.653Z,30.10
2022-08-14T09:05:38.721Z,30.00
2022-08-14T09:08:47.080Z,29.63
2022-08-14T09:11:49.981Z,29.31
2022-08-14T09:14:54.602Z,29.59
2022-08-14T09:17:58.277Z,30.07
2022-08-14T09:21:00.885Z,29.94
2022-08-14T09:24:29.069Z,30.09
2022-08-14T09:27:26.208Z,30.57
2022-08-14T09:30:33.600Z,30.40
2022-08-14T09:33:56.292Z,30.72
2022-08-14T09:37:18.490Z,31.23
2022-08-14T09:40:37.211Z,31.81
2022-08-14T09:43:50.765Z,32.10
2022-08-14T09:46:56.330Z,32.17
2022-08-14T09:50:00.590Z,31.59
2022-08-14T09:53:17.965Z,31.04
2022-08-14T09:56:30.707Z,30.05
2022-08-14T09:59:44.790Z,30.44
2022-08-14T10:02:57.786Z,30.12
2022-08-14T10:06:09.865Z,30.19
2022-08-14T10:09:16.888Z,30.29
2022-08-14T10:12:28.789Z,30.44
2022-08-14T10:15:33.610Z,30.65
2022-08-14T10:18:37.620Z,30.93
2022-08-14T10:21:58.425Z,30.78
2022-08-14T10:25:14.107Z,30.76
2022-08-14T10:28:39.094Z,30.50
2022-08-14T10:31:44.509Z,30.44
2022-08-14T10:34:52.472Z,30.23
2022-08-14T10:37:55.666Z,29.99
2022-08-14T10:41:13.310Z,29.64
2022-08-14T10:44:21.358Z,29.35
2022-08-14T10:47:41.385Z,29.40
2022-08-14T10:51:00.231Z,29.37
2022-08-14T10:54:34.946Z,29.17
2022-08-14T10:57:35.491Z,28.99
2022-08-14T11:00:46.907Z,29.15
2022-08-14T11:03:55.712Z,29.20
2022-08-14T11:07:01.375Z,28.99
2022-08-14T11:10:06.980Z,29.12
2022-08-14T11:13:09.838Z,29.09
2022-08-14T11:16:13.160Z,28.92
2022-08-14T11:19:16.518Z,28.55
2022-08-14T11:22:56.299Z,28.62
2022-08-14T11:25:52.973Z,28.76
2022-08-14T11:28:59.915Z,28.91
2022-08-14T11:32:03.273Z,29.18
2022-08-14T11:35:06.884Z,29.34
2022-08-14T11:38:12.534Z,29.44
2022-08-14T11:41:17.565Z,29.75
2022-08-14T11:44:46.221Z,30.47
2022-08-14T11:48:01.225Z,31.32
2022-08-14T11:51:13.961Z,31.48
2022-08-14T11:54:19.514Z,31.57
2022-08-14T11:57:23.007Z,31.97
2022-08-14T12:00:31.827Z,31.68
2022-08-14T12:03:51.508Z,31.29
2022-08-14T12:06:56.698Z,31.85
2022-08-14T12:10:00.716Z,31.97
2022-08-14T12:13:23.311Z,31.67
2022-08-14T12:16:31.317Z,31.82
2022-08-14T12:19:50.917Z,31.96
2022-08-14T12:22:55.022Z,32.20
2022-08-14T12:26:39.455Z,32.10
2022-08-14T12:29:28.615Z,32.10
2022-08-14T12:32:41.970Z,32.77
2022-08-14T12:35:45.660Z,33.09
2022-08-14T12:38:50.797Z,33.55
2022-08-14T12:42:06.550Z,33.56
2022-08-14T12:45:12.988Z,33.69
2022-08-14T12:48:21.690Z,34.43
2022-08-14T12:51:34.330Z,34.93
2022-08-14T12:54:50.535Z,35.04
2022-08-14T12:58:34.999Z,34.68
2022-08-14T13:01:31.114Z,34.52
2022-08-14T13:04:35.432Z,33.94
2022-08-14T13:07:40.185Z,33.72
2022-08-14T13:10:52.368Z,35.02
2022-08-14T13:14:00.547Z,34.37
2022-08-14T13:17:05.473Z,33.77
2022-08-14T13:20:24.405Z,33.13
2022-08-14T13:23:32.983Z,32.79
2022-08-14T13:26:40.033Z,32.88
2022-08-14T13:29:53.350Z,32.94
2022-08-14T13:32:58.388Z,32.89
2022-08-14T13:36:02.368Z,33.44
2022-08-14T13:39:05.015Z,33.79
2022-08-14T13:42:13.365Z,33.87
2022-08-14T13:45:18.291Z,34.40
2022-08-14T13:48:32.332Z,34.30
2022-08-14T13:51:41.314Z,34.31
2022-08-14T13:54:46.270Z,35.19
2022-08-14T13:58:04.438Z,35.22
2022-08-14T14:01:09.403Z,34.71
2022-08-14T14:04:19.047Z,34.49
2022-08-14T14:07:23.882Z,34.35
2022-08-14T14:10:28.159Z,34.01
2022-08-14T14:13:32.490Z,33.61
2022-08-14T14:16:38.345Z,33.21
2022-08-14T14:19:46.286Z,33.04
2022-08-14T14:23:02.514Z,32.99
2022-08-14T14:26:06.389Z,32.94
2022-08-14T14:29:25.943Z,32.93
2022-08-14T14:32:32.377Z,32.98
2022-08-14T14:35:38.621Z,33.13
2022-08-14T14:38:45.027Z,33.12
2022-08-14T14:41:56.214Z,32.96
2022-08-14T14:45:05.595Z,32.94
2022-08-14T14:48:10.012Z,32.99
2022-08-14T14:51:14.482Z,32.84
2022-08-14T14:54:30.042Z,32.87
2022-08-14T14:57:36.361Z,32.99
2022-08-14T15:00:40.071Z,32.88
2022-08-14T15:03:46.088Z,32.79
2022-08-14T15:06:49.073Z,32.79
2022-08-14T15:09:51.684Z,32.88
2022-08-14T15:12:57.497Z,32.69
2022-08-14T15:16:00.731Z,31.97
2022-08-14T15:19:05.621Z,31.73
2022-08-14T15:22:10.622Z,31.40
2022-08-14T15:25:14.689Z,30.79
2022-08-14T15:28:21.668Z,30.68
2022-08-14T15:31:24.422Z,30.34
2022-08-14T15:34:45.885Z,30.25
2022-08-14T15:37:55.919Z,30.18
2022-08-14T15:41:04.514Z,30.03
2022-08-14T15:44:24.659Z,29.98
2022-08-14T15:47:30.824Z,29.98
2022-08-14T15:50:35.405Z,30.03
2022-08-14T15:53:38.038Z,29.96
2022-08-14T15:56:43.551Z,29.83
2022-08-14T16:00:04.134Z,29.82
2022-08-14T16:03:15.543Z,29.91
2022-08-14T16:06:22.132Z,29.94
2022-08-14T16:09:25.544Z,29.89
2022-08-14T16:12:41.333Z,30.04
2022-08-14T16:15:53.111Z,30.07
2022-08-14T16:18:58.303Z,29.99
2022-08-14T16:22:57.160Z,30.04
2022-08-14T16:25:34.658Z,29.96
2022-08-14T16:28:38.286Z,29.81
2022-08-14T16:31:43.529Z,29.80
2022-08-14T16:34:49.225Z,29.67
2022-08-14T16:37:59.870Z,29.71
2022-08-14T16:41:27.178Z,29.50
2022-08-14T16:44:36.377Z,29.38
2022-08-14T16:47:39.644Z,29.35
2022-08-14T16:50:44.527Z,29.25
2022-08-14T16:53:49.674Z,29.27
2022-08-14T16:56:53.035Z,29.13
2022-08-14T16:59:59.205Z,29.01
2022-08-14T17:03:11.465Z,28.80
2022-08-14T17:06:30.588Z,28.67
2022-08-14T17:09:43.569Z,28.69
2022-08-14T17:12:46.498Z,28.72
2022-08-14T17:16:05.354Z,28.75
2022-08-14T17:19:17.591Z,28.67
2022-08-14T17:22:22.267Z,28.59
2022-08-14T17:25:36.989Z,28.47
2022-08-14T17:28:51.802Z,28.39
2022-08-14T17:32:02.128Z,28.34
2022-08-14T17:35:10.118Z,28.33
2022-08-14T17:38:38.643Z,28.21
2022-08-14T17:41:43.796Z,28.21
2022-08-14T17:44:48.117Z,28.17
2022-08-14T17:47:51.426Z,28.04
2022-08-14T17:50:59.755Z,27.92
2022-08-14T17:54:04.617Z,27.89
2022-08-14T17:57:14.868Z,27.70
2022-08-14T18:00:17.742Z,27.66
2022-08-14T18:03:50.632Z,27.55
2022-08-14T18:06:57.815Z,27.36
2022-08-14T18:10:53.206Z,27.47
2022-08-14T18:13:50.832Z,27.44
2022-08-14T18:16:57.140Z,27.44
2022-08-14T18:19:59.862Z,27.50
2022-08-14T18:23:06.032Z,27.34
2022-08-14T18:26:09.598Z,27.20
2022-08-14T18:29:35.755Z,27.35
2022-08-14T18:32:55.002Z,27.11
2022-08-14T18:36:46.670Z,26.94
2022-08-14T18:39:32.834Z,26.88
2022-08-14T18:42:45.634Z,26.84
2022-08-14T18:46:01.818Z,26.75
2022-08-14T18:49:17.077Z,26.74
2022-08-14T18:52:20.326Z,26.65
2022-08-14T18:55:53.124Z,26.46
2022-08-14T18:58:58.791Z,26.34
2022-08-14T19:02:42.391Z,26.38
2022-08-14T19:05:59.601Z,26.46
2022-08-14T19:09:03.803Z,26.42
2022-08-14T19:12:06.898Z,26.25
2022-08-14T19:15:20.702Z,26.16
2022-08-14T19:18:30.368Z,26.24
2022-08-14T19:21:44.504Z,26.19
2022-08-14T19:24:50.414Z,26.07
2022-08-14T19:28:31.560Z,26.03
2022-08-14T19:31:42.172Z,26.00
2022-08-14T19:34:48.114Z,25.94
2022-08-14T19:37:57.976Z,25.78
2022-08-14T19:41:02.242Z,25.67
2022-08-14T19:44:13.312Z,25.71
2022-08-14T19:47:16.083Z,25.65
2022-08-14T19:50:30.626Z,25.69
2022-08-14T19:53:52.829Z,25.51
2022-08-14T19:56:59.167Z,25.67
2022-08-14T20:00:07.848Z,25.63
2022-08-14T20:04:00.628Z,25.43
2022-08-14T20:07:04.393Z,25.49
2022-08-14T20:11:09.173Z,25.71
2022-08-14T20:13:49.446Z,25.53
2022-08-14T20:16:54.591Z,25.62
2022-08-14T20:19:59.029Z,25.62
2022-08-14T20:23:11.207Z,25.51
2022-08-14T20:26:31.595Z,25.46
2022-08-14T20:29:38.118Z,25.40
2022-08-14T20:32:48.130Z,25.29
2022-08-14T20:35:51.449Z,25.28
2022-08-14T20:38:57.078Z,25.18
2022-08-14T20:42:24.287Z,25.06
2022-08-14T20:45:28.915Z,24.91
2022-08-14T20:48:52.788Z,24.91
2022-08-14T20:52:00.249Z,24.90
2022-08-14T20:55:22.342Z,24.91
2022-08-14T20:58:44.115Z,24.85
2022-08-14T21:01:52.052Z,24.73
2022-08-14T21:05:00.537Z,24.84
2022-08-14T21:08:09.720Z,24.81
2022-08-14T21:11:27.968Z,24.82
2022-08-14T21:14:30.604Z,24.69
2022-08-14T21:17:38.152Z,24.52
2022-08-14T21:20:45.441Z,24.59
2022-08-14T21:23:54.362Z,24.54
2022-08-14T21:27:02.068Z,24.59
2022-08-14T21:30:13.993Z,24.50
2022-08-14T21:33:24.734Z,24.38
2022-08-14T21:36:31.059Z,24.37
2022-08-14T21:39:34.236Z,24.13
2022-08-14T21:42:37.716Z,24.28
2022-08-14T21:45:40.268Z,24.19
2022-08-14T21:48:44.614Z,23.99
2022-08-14T21:51:57.118Z,23.98
2022-08-14T21:55:09.302Z,24.15
2022-08-14T21:58:52.085Z,24.25
2022-08-14T22:02:00.928Z,23.99
2022-08-14T22:04:59.538Z,23.94
2022-08-14T22:08:07.298Z,24.08
2022-08-14T22:11:09.951Z,24.06
2022-08-14T22:14:25.126Z,24.10
2022-08-14T22:17:32.416Z,23.95
2022-08-14T22:20:38.514Z,23.89
2022-08-14T22:23:41.127Z,23.86
2022-08-14T22:26:45.076Z,23.87
2022-08-14T22:29:47.739Z,23.72
2022-08-14T22:32:59.925Z,23.73
2022-08-14T22:36:26.214Z,23.71
2022-08-14T22:40:16.702Z,23.58
2022-08-14T22:43:00.201Z,23.56
2022-08-14T22:46:06.083Z,23.51
2022-08-14T22:50:29.190Z,23.49
2022-08-14T22:52:49.603Z,23.53
2022-08-14T22:55:52.924Z,23.34
2022-08-14T22:58:57.747Z,23.37
2022-08-14T23:02:03.774Z,23.27
2022-08-14T23:05:08.107Z,23.25
2022-08-14T23:08:58.132Z,23.13
2022-08-14T23:11:37.719Z,23.19
2022-08-14T23:14:41.738Z,23.07
2022-08-14T23:17:44.535Z,23.08
2022-08-14T23:20:49.171Z,23.14
2022-08-14T23:23:55.033Z,23.09
2022-08-14T23:26:58.275Z,23.07
2022-08-14T23:30:00.875Z,23.07
2022-08-14T23:33:04.225Z,23.07
2022-08-14T23:36:32.082Z,22.99
2022-08-14T23:39:33.071Z,22.93
2022-08-14T23:42:50.395Z,22.88
2022-08-14T23:45:57.332Z,22.71
2022-08-14T23:49:00.434Z,22.65
2022-08-14T23:52:50.868Z,22.58
2022-08-14T23:55:33.005Z,22.50
2022-08-14T23:58:37.007Z,22.33
